createdAt,value
2019-02-04T00:00:50.412Z,2.55
2019-02-04T00:03:22.070Z,2.30
2019-02-04T00:05:51.065Z,2.72
2019-02-04T00:08:20.165Z,3.22
2019-02-04T00:10:49.360Z,2.08
2019-02-04T00:13:18.461Z,1.80
2019-02-04T00:15:47.645Z,3.10
2019-02-04T00:18:16.752Z,2.97
2019-02-04T00:20:45.736Z,3.37
2019-02-04T00:23:14.958Z,2.67
2019-02-04T00:25:43.926Z,3.08
2019-02-04T00:28:13.139Z,3.22
2019-02-04T00:30:42.031Z,3.42
2019-02-04T00:33:11.131Z,3.08
2019-02-04T00:35:40.225Z,3.00
2019-02-04T00:38:09.327Z,2.90
2019-02-04T00:40:38.452Z,3.27
2019-02-04T00:43:07.415Z,3.43
2019-02-04T00:45:36.511Z,2.55
2019-02-04T00:48:05.574Z,2.97
2019-02-04T00:50:34.640Z,2.90
2019-02-04T00:53:03.589Z,3.12
2019-02-04T00:55:32.671Z,2.80
2019-02-04T00:58:01.789Z,3.97
2019-02-04T01:00:31.984Z,3.00
2019-02-04T01:03:02.072Z,2.30
2019-02-04T01:05:30.941Z,3.00
2019-02-04T01:08:00.314Z,3.15
2019-02-04T01:10:32.023Z,3.10
2019-02-04T01:13:01.790Z,2.90
2019-02-04T01:15:30.787Z,2.80
2019-02-04T01:17:59.887Z,2.90
2019-02-04T01:20:30.881Z,2.98
2019-02-04T01:23:00.128Z,2.50
2019-02-04T01:25:29.634Z,3.00
2019-02-04T01:27:58.631Z,2.95
2019-02-04T01:30:27.634Z,4.40
2019-02-04T01:32:56.718Z,4.03
2019-02-04T01:35:26.230Z,2.95
2019-02-04T01:37:55.324Z,3.10
2019-02-04T01:40:26.211Z,2.90
2019-02-04T01:42:56.388Z,3.60
2019-02-04T01:45:26.098Z,4.10
2019-02-04T01:47:55.192Z,3.40
2019-02-04T01:50:24.903Z,3.00
2019-02-04T01:52:53.997Z,2.67
2019-02-04T01:55:23.798Z,2.67
2019-02-04T01:57:54.738Z,2.10
2019-02-04T02:00:29.787Z,2.58
2019-02-04T02:02:58.979Z,2.08
2019-02-04T02:05:28.185Z,1.75
2019-02-04T02:07:57.487Z,2.00
2019-02-04T02:10:27.789Z,2.85
2019-02-04T02:12:57.469Z,2.40
2019-02-04T02:15:26.721Z,1.85
2019-02-04T02:17:55.715Z,1.90
2019-02-04T02:20:27.272Z,2.20
2019-02-04T02:22:56.366Z,2.65
2019-02-04T02:25:25.462Z,2.10
2019-02-04T02:27:54.461Z,2.08
2019-02-04T02:30:29.586Z,2.30
2019-02-04T02:32:58.695Z,1.67
2019-02-04T02:35:27.892Z,2.50
2019-02-04T02:37:58.427Z,2.52
2019-02-04T02:40:31.313Z,2.87
2019-02-04T02:43:02.658Z,2.35
2019-02-04T02:45:32.164Z,2.98
2019-02-04T02:48:01.259Z,1.95
2019-02-04T02:50:30.563Z,1.85
2019-02-04T02:52:59.558Z,2.05
2019-02-04T02:55:28.637Z,2.00
2019-02-04T02:57:57.954Z,2.35
2019-02-04T03:00:28.255Z,2.22
2019-02-04T03:02:57.681Z,2.52
2019-02-04T03:05:26.983Z,2.45
2019-02-04T03:07:56.593Z,2.30
2019-02-04T03:10:27.734Z,2.35
2019-02-04T03:12:57.243Z,2.90
2019-02-04T03:15:26.506Z,1.75
2019-02-04T03:17:55.754Z,2.40
2019-02-04T03:20:24.942Z,2.12
2019-02-04T03:22:53.940Z,2.08
2019-02-04T03:25:23.631Z,1.40
2019-02-04T03:27:52.641Z,2.75
2019-02-04T03:30:27.374Z,2.10
2019-02-04T03:32:56.267Z,2.02
2019-02-04T03:35:25.361Z,1.57
2019-02-04T03:37:54.660Z,1.75
2019-02-04T03:40:29.183Z,2.22
2019-02-04T03:42:58.178Z,1.92
2019-02-04T03:45:27.276Z,1.62
2019-02-04T03:48:04.379Z,2.52
2019-02-04T03:50:27.104Z,2.00
2019-02-04T03:52:56.511Z,2.02
2019-02-04T03:55:25.608Z,2.40
2019-02-04T03:57:55.625Z,3.00
2019-02-04T04:00:27.487Z,2.27
2019-02-04T04:02:56.584Z,2.85
2019-02-04T04:05:25.977Z,2.17
2019-02-04T04:07:55.084Z,1.75
2019-02-04T04:10:24.222Z,1.90
2019-02-04T04:12:53.275Z,2.85
2019-02-04T04:15:23.082Z,1.95
2019-02-04T04:17:52.083Z,1.45
2019-02-04T04:20:21.791Z,1.02
2019-02-04T04:22:50.894Z,1.82
2019-02-04T04:25:20.183Z,2.27
2019-02-04T04:27:49.289Z,2.05
2019-02-04T04:30:26.475Z,1.77
2019-02-04T04:32:56.800Z,1.92
2019-02-04T04:35:25.986Z,2.75
2019-02-04T04:37:55.095Z,1.65
2019-02-04T04:40:24.499Z,1.72
2019-02-04T04:42:53.597Z,1.80
2019-02-04T04:45:26.701Z,1.40
2019-02-04T04:47:55.577Z,1.87
2019-02-04T04:50:24.680Z,2.22
2019-02-04T04:52:53.874Z,1.35
2019-02-04T04:55:24.836Z,2.25
2019-02-04T04:57:54.215Z,1.95
2019-02-04T05:00:30.088Z,1.95
2019-02-04T05:02:59.373Z,1.77
2019-02-04T05:05:28.678Z,1.92
2019-02-04T05:07:57.874Z,1.75
2019-02-04T05:10:27.884Z,2.60
2019-02-04T05:12:57.091Z,1.80
2019-02-04T05:15:27.846Z,1.57
2019-02-04T05:17:56.810Z,1.30
2019-02-04T05:20:25.792Z,2.20
2019-02-04T05:22:54.844Z,1.70
2019-02-04T05:25:23.869Z,1.45
2019-02-04T05:27:53.400Z,1.30
2019-02-04T05:30:27.220Z,1.52
2019-02-04T05:32:56.103Z,1.47
2019-02-04T05:35:25.594Z,1.42
2019-02-04T05:37:55.020Z,0.93
2019-02-04T05:40:24.012Z,2.25
2019-02-04T05:42:53.141Z,1.95
2019-02-04T05:45:22.204Z,1.90
2019-02-04T05:47:51.200Z,1.25
2019-02-04T05:50:20.942Z,1.47
2019-02-04T05:52:51.953Z,1.90
2019-02-04T05:55:22.789Z,2.77
2019-02-04T05:57:51.988Z,1.92
2019-02-04T06:00:33.215Z,1.75
2019-02-04T06:03:02.358Z,1.37
2019-02-04T06:05:31.250Z,1.98
2019-02-04T06:08:01.585Z,1.40
2019-02-04T06:10:31.432Z,2.00
2019-02-04T06:13:00.702Z,3.10
2019-02-04T06:15:29.897Z,1.40
2019-02-04T06:17:59.000Z,1.90
2019-02-04T06:20:28.091Z,1.42
2019-02-04T06:22:57.595Z,2.15
2019-02-04T06:25:26.586Z,2.20
2019-02-04T06:27:55.690Z,2.25
2019-02-04T06:30:24.988Z,2.72
2019-02-04T06:32:54.497Z,1.60
2019-02-04T06:35:23.796Z,1.67
2019-02-04T06:37:52.892Z,1.12
2019-02-04T06:40:22.501Z,2.02
2019-02-04T06:42:51.494Z,2.30
2019-02-04T06:45:20.490Z,2.15
2019-02-04T06:47:51.231Z,1.30
2019-02-04T06:50:21.219Z,2.33
2019-02-04T06:52:50.133Z,1.35
2019-02-04T06:55:22.091Z,1.52
2019-02-04T06:57:51.387Z,3.17
2019-02-04T07:00:20.586Z,1.07
2019-02-04T07:02:49.694Z,2.08
2019-02-04T07:05:19.313Z,1.80
2019-02-04T07:07:48.181Z,1.47
2019-02-04T07:10:27.530Z,1.95
2019-02-04T07:12:56.876Z,1.98
2019-02-04T07:15:28.704Z,1.10
2019-02-04T07:18:01.678Z,1.67
2019-02-04T07:20:28.626Z,1.70
2019-02-04T07:22:58.870Z,1.10
2019-02-04T07:25:27.846Z,1.87
2019-02-04T07:27:56.935Z,1.42
2019-02-04T07:30:27.983Z,1.47
2019-02-04T07:32:57.901Z,1.42
2019-02-04T07:35:27.694Z,2.17
2019-02-04T07:37:56.602Z,2.70
2019-02-04T07:40:34.099Z,2.15
2019-02-04T07:43:03.194Z,2.00
2019-02-04T07:45:32.598Z,2.62
2019-02-04T07:48:02.826Z,1.60
2019-02-04T07:50:31.711Z,2.30
2019-02-04T07:53:01.118Z,1.95
2019-02-04T07:55:32.008Z,2.30
2019-02-04T07:58:01.180Z,2.15
2019-02-04T08:00:32.360Z,3.65
2019-02-04T08:03:01.819Z,4.08
2019-02-04T08:05:31.105Z,3.52
2019-02-04T08:08:00.117Z,3.03
2019-02-04T08:10:28.990Z,2.83
2019-02-04T08:13:01.385Z,2.80
2019-02-04T08:15:34.024Z,2.37
2019-02-04T08:18:03.119Z,2.20
2019-02-04T08:20:33.056Z,2.30
2019-02-04T08:23:02.260Z,2.23
2019-02-04T08:25:31.359Z,2.27
2019-02-04T08:28:00.452Z,2.53
2019-02-04T08:30:37.733Z,3.00
2019-02-04T08:33:05.636Z,3.30
2019-02-04T08:35:34.512Z,3.10
2019-02-04T08:38:03.748Z,3.03
2019-02-04T08:40:32.908Z,2.17
2019-02-04T08:43:01.906Z,3.10
2019-02-04T08:45:30.898Z,3.07
2019-02-04T08:48:00.967Z,3.63
2019-02-04T08:50:30.090Z,2.83
2019-02-04T08:52:58.971Z,3.00
2019-02-04T08:55:27.983Z,3.47
2019-02-04T08:57:57.717Z,3.43
2019-02-04T09:00:27.941Z,1.57
2019-02-04T09:02:56.918Z,3.27
2019-02-04T09:05:26.219Z,3.80
2019-02-04T09:07:55.307Z,2.77
2019-02-04T09:10:29.944Z,2.83
2019-02-04T09:12:59.834Z,3.60
2019-02-04T09:15:29.173Z,3.47
2019-02-04T09:17:59.102Z,2.87
2019-02-04T09:20:28.376Z,2.90
2019-02-04T09:22:57.367Z,3.10
2019-02-04T09:25:27.594Z,3.50
2019-02-04T09:27:58.227Z,3.17
2019-02-04T09:30:28.277Z,3.30
2019-02-04T09:32:59.492Z,3.40
2019-02-04T09:35:28.594Z,3.10
2019-02-04T09:37:57.871Z,2.90
2019-02-04T09:40:36.087Z,3.37
2019-02-04T09:43:05.147Z,3.37
2019-02-04T09:45:34.252Z,3.30
2019-02-04T09:48:06.055Z,2.93
2019-02-04T09:50:37.910Z,2.80
2019-02-04T09:53:08.037Z,3.17
2019-02-04T09:55:39.305Z,3.10
2019-02-04T09:58:10.226Z,2.97
2019-02-04T10:00:39.632Z,3.17
2019-02-04T10:03:09.084Z,3.40
2019-02-04T10:05:38.657Z,3.07
2019-02-04T10:08:08.601Z,2.83
2019-02-04T10:10:37.863Z,3.03
2019-02-04T10:13:07.095Z,3.33
2019-02-04T10:15:38.361Z,3.27
2019-02-04T10:18:08.530Z,2.60
2019-02-04T10:20:38.298Z,2.90
2019-02-04T10:23:08.533Z,2.60
2019-02-04T10:25:42.724Z,2.60
2019-02-04T10:28:13.760Z,3.00
2019-02-04T10:30:43.061Z,2.70
2019-02-04T10:33:12.744Z,2.07
2019-02-04T10:35:42.190Z,2.87
2019-02-04T10:38:11.274Z,3.40
2019-02-04T10:40:40.280Z,3.27
2019-02-04T10:43:09.531Z,3.07
2019-02-04T10:45:38.629Z,2.80
2019-02-04T10:48:08.302Z,3.07
2019-02-04T10:50:46.378Z,3.07
2019-02-04T10:53:14.142Z,2.50
2019-02-04T10:55:43.237Z,3.00
2019-02-04T10:58:13.990Z,2.90
2019-02-04T11:00:43.248Z,3.57
2019-02-04T11:03:12.341Z,2.93
2019-02-04T11:05:45.245Z,2.87
2019-02-04T11:08:14.896Z,2.67
2019-02-04T11:10:44.107Z,2.63
2019-02-04T11:13:15.679Z,3.37
2019-02-04T11:15:45.722Z,2.10
2019-02-04T11:18:15.323Z,2.90
2019-02-04T11:20:57.245Z,2.83
2019-02-04T11:23:16.191Z,2.47
2019-02-04T11:25:45.665Z,2.33
2019-02-04T11:28:15.717Z,2.97
2019-02-04T11:30:53.711Z,2.73
2019-02-04T11:33:24.747Z,2.50
2019-02-04T11:35:54.269Z,2.87
2019-02-04T11:38:24.682Z,2.60
2019-02-04T11:40:54.800Z,2.83
2019-02-04T11:43:24.035Z,2.13
2019-02-04T11:45:54.949Z,2.70
2019-02-04T11:48:24.957Z,1.90
2019-02-04T11:50:54.259Z,2.30
2019-02-04T11:53:32.262Z,2.20
2019-02-04T11:55:54.705Z,2.00
2019-02-04T11:58:23.703Z,2.30
2019-02-04T12:00:52.675Z,2.23
2019-02-04T12:03:21.795Z,2.30
2019-02-04T12:05:50.794Z,2.10
2019-02-04T12:08:19.912Z,2.73
2019-02-04T12:10:58.326Z,2.20
2019-02-04T12:13:27.278Z,2.00
2019-02-04T12:15:57.598Z,1.23
2019-02-04T12:18:26.714Z,1.90
2019-02-04T12:20:55.706Z,0.70
2019-02-04T12:23:25.425Z,1.40
2019-02-04T12:25:54.618Z,2.17
2019-02-04T12:28:23.736Z,1.40
2019-02-04T12:30:52.810Z,1.43
2019-02-04T12:33:21.905Z,0.97
2019-02-04T12:35:51.035Z,1.03
2019-02-04T12:38:20.211Z,1.23
2019-02-04T12:40:49.304Z,1.10
2019-02-04T12:43:21.229Z,1.00
2019-02-04T12:45:49.134Z,1.20
2019-02-04T12:48:18.000Z,0.80
2019-02-04T12:50:47.119Z,1.77
2019-02-04T12:53:16.228Z,1.20
2019-02-04T12:55:45.556Z,0.90
2019-02-04T12:58:16.150Z,1.23
2019-02-04T13:00:45.141Z,0.93
2019-02-04T13:03:14.168Z,1.10
2019-02-04T13:05:46.001Z,1.30
2019-02-04T13:08:15.505Z,1.23
2019-02-04T13:10:44.604Z,1.30
2019-02-04T13:13:16.269Z,0.90
2019-02-04T13:15:45.280Z,1.00
2019-02-04T13:18:14.351Z,0.80
2019-02-04T13:20:43.959Z,1.00
2019-02-04T13:23:14.490Z,0.70
2019-02-04T13:25:43.485Z,0.90
2019-02-04T13:28:14.771Z,1.43
2019-02-04T13:30:44.129Z,1.00
2019-02-04T13:33:13.537Z,1.00
2019-02-04T13:35:42.544Z,1.33
2019-02-04T13:38:11.734Z,1.13
2019-02-04T13:40:44.328Z,0.87
2019-02-04T13:43:14.473Z,0.83
2019-02-04T13:45:43.636Z,1.13
2019-02-04T13:48:13.316Z,1.10
2019-02-04T13:50:42.541Z,1.20
2019-02-04T13:53:11.440Z,1.53
2019-02-04T13:55:41.459Z,1.13
2019-02-04T13:58:10.957Z,0.90
2019-02-04T14:00:40.473Z,0.90
2019-02-04T14:03:10.587Z,1.00
2019-02-04T14:05:40.095Z,0.97
2019-02-04T14:08:09.333Z,1.10
2019-02-04T14:10:41.560Z,1.50
2019-02-04T14:13:11.070Z,1.40
2019-02-04T14:15:41.187Z,1.87
2019-02-04T14:18:10.595Z,1.17
2019-02-04T14:20:39.688Z,1.30
2019-02-04T14:23:08.990Z,1.00
2019-02-04T14:25:38.497Z,1.43
2019-02-04T14:28:07.571Z,1.70
2019-02-04T14:30:38.462Z,1.17
2019-02-04T14:33:07.520Z,1.30
2019-02-04T14:35:36.712Z,0.90
2019-02-04T14:38:06.679Z,1.07
2019-02-04T14:40:36.049Z,1.53
2019-02-04T14:43:23.476Z,1.33
2019-02-04T14:46:19.500Z,1.13
2019-02-04T14:49:26.901Z,2.00
2019-02-04T14:52:21.615Z,1.27
2019-02-04T14:55:10.248Z,2.60
2019-02-04T14:58:06.301Z,1.60
2019-02-04T15:01:01.384Z,1.13
2019-02-04T15:03:50.554Z,1.47
2019-02-04T15:06:22.719Z,1.07
2019-02-04T15:09:14.547Z,1.20
2019-02-04T15:11:47.431Z,3.03
2019-02-04T15:14:22.397Z,1.33
2019-02-04T15:16:59.352Z,2.13
2019-02-04T15:19:37.743Z,1.50
2019-02-04T15:22:33.134Z,1.10
2019-02-04T15:24:58.077Z,1.27
2019-02-04T15:27:39.041Z,1.07
2019-02-04T15:30:20.528Z,1.20
2019-02-04T15:32:55.398Z,0.97
2019-02-04T15:35:59.364Z,0.93
2019-02-04T15:38:46.284Z,1.23
2019-02-04T15:41:18.556Z,1.30
2019-02-04T15:44:05.477Z,1.20
2019-02-04T15:46:49.555Z,1.10
2019-02-04T15:49:50.425Z,1.03
2019-02-04T15:52:14.400Z,1.40
2019-02-04T15:54:44.047Z,1.60
2019-02-04T15:57:13.604Z,1.20
2019-02-04T15:59:43.278Z,1.63
2019-02-04T16:02:14.340Z,1.40
2019-02-04T16:04:44.107Z,0.80
2019-02-04T16:07:13.844Z,1.53
2019-02-04T16:09:43.453Z,1.05
2019-02-04T16:12:13.359Z,1.07
2019-02-04T16:14:42.913Z,0.93
2019-02-04T16:17:12.297Z,1.00
2019-02-04T16:19:41.888Z,0.95
2019-02-04T16:22:11.408Z,1.37
2019-02-04T16:24:41.068Z,0.80
2019-02-04T16:27:10.929Z,1.50
2019-02-04T16:29:40.542Z,1.20
2019-02-04T16:32:10.086Z,1.02
2019-02-04T16:34:39.761Z,0.78
2019-02-04T16:37:08.994Z,1.10
2019-02-04T16:39:39.153Z,1.80
2019-02-04T16:42:09.084Z,1.77
2019-02-04T16:44:38.169Z,1.92
2019-02-04T16:47:07.823Z,1.42
2019-02-04T16:49:37.420Z,1.45
2019-02-04T16:52:07.042Z,1.20
2019-02-04T16:54:36.204Z,0.82
2019-02-04T16:57:06.089Z,1.67
2019-02-04T16:59:37.262Z,1.00
2019-02-04T17:02:06.516Z,8.65
2019-02-04T17:04:35.712Z,4.10
2019-02-04T17:07:05.634Z,2.00
2019-02-04T17:09:34.786Z,1.40
2019-02-04T17:12:04.032Z,0.70
2019-02-04T17:14:33.400Z,1.42
2019-02-04T17:17:02.815Z,1.20
2019-02-04T17:19:32.339Z,1.10
2019-02-04T17:22:01.486Z,1.20
2019-02-04T17:24:30.994Z,1.15
2019-02-04T17:27:00.718Z,1.10
2019-02-04T17:29:30.207Z,0.72
2019-02-04T17:32:00.530Z,1.45
2019-02-04T17:34:30.395Z,2.02
2019-02-04T17:37:00.097Z,1.12
2019-02-04T17:39:29.805Z,1.40
2019-02-04T17:42:00.646Z,1.65
2019-02-04T17:44:30.440Z,1.70
2019-02-04T17:46:59.696Z,1.50
2019-02-04T17:49:29.388Z,1.10
2019-02-04T17:51:59.034Z,0.93
2019-02-04T17:54:28.960Z,1.57
2019-02-04T17:56:58.621Z,1.52
2019-02-04T17:59:28.190Z,1.22
2019-02-04T18:01:57.949Z,0.98
2019-02-04T18:04:27.641Z,1.37
2019-02-04T18:06:57.650Z,1.05
2019-02-04T18:09:27.117Z,1.00
2019-02-04T18:11:56.625Z,1.25
2019-02-04T18:14:26.424Z,1.52
2019-02-04T18:16:55.805Z,1.82
2019-02-04T18:19:25.329Z,1.40
2019-02-04T18:21:54.997Z,1.30
2019-02-04T18:24:24.335Z,2.02
2019-02-04T18:26:54.337Z,1.72
2019-02-04T18:29:24.100Z,2.33
2019-02-04T18:31:55.051Z,3.65
2019-02-04T18:34:25.106Z,2.15
2019-02-04T18:36:54.863Z,3.05
2019-02-04T18:39:24.620Z,2.25
2019-02-04T18:41:55.677Z,1.70
2019-02-04T18:44:25.082Z,2.00
2019-02-04T18:46:55.175Z,2.47
2019-02-04T18:49:26.192Z,2.08
2019-02-04T18:51:55.884Z,3.17
2019-02-04T18:54:26.374Z,2.00
2019-02-04T18:56:56.040Z,1.77
2019-02-04T18:59:25.790Z,2.20
2019-02-04T19:01:55.703Z,2.22
2019-02-04T19:04:25.366Z,2.50
2019-02-04T19:06:54.804Z,1.92
2019-02-04T19:09:24.533Z,1.75
2019-02-04T19:11:55.552Z,1.85
2019-02-04T19:14:25.202Z,2.35
2019-02-04T19:16:55.076Z,1.52
2019-02-04T19:19:24.892Z,2.10
2019-02-04T19:21:54.670Z,2.50
2019-02-04T19:24:24.146Z,1.90
2019-02-04T19:26:54.183Z,1.60
2019-02-04T19:29:23.936Z,2.15
2019-02-04T19:31:53.344Z,1.55
2019-02-04T19:34:23.012Z,1.55
2019-02-04T19:36:52.447Z,2.00
2019-02-04T19:39:21.949Z,2.85
2019-02-04T19:41:51.401Z,2.58
2019-02-04T19:44:20.845Z,2.22
2019-02-04T19:46:50.391Z,2.10
2019-02-04T19:49:20.042Z,1.85
2019-02-04T19:51:49.614Z,2.08
2019-02-04T19:54:21.721Z,1.85
2019-02-04T19:56:50.828Z,3.65
2019-02-04T19:59:22.100Z,1.85
2019-02-04T20:01:51.575Z,2.20
2019-02-04T20:04:21.155Z,1.80
2019-02-04T20:06:50.472Z,1.92
2019-02-04T20:09:20.185Z,2.40
2019-02-04T20:11:49.951Z,3.30
2019-02-04T20:14:19.780Z,2.25
2019-02-04T20:16:49.533Z,2.30
2019-02-04T20:19:19.589Z,1.72
2019-02-04T20:21:49.257Z,3.10
2019-02-04T20:24:19.330Z,2.17
2019-02-04T20:26:48.912Z,2.87
2019-02-04T20:29:18.574Z,2.75
2019-02-04T20:31:48.135Z,3.42
2019-02-04T20:34:17.582Z,2.50
2019-02-04T20:36:47.296Z,2.95
2019-02-04T20:39:16.927Z,2.95
2019-02-04T20:41:46.346Z,2.33
2019-02-04T20:44:19.098Z,3.55
2019-02-04T20:46:47.452Z,2.20
2019-02-04T20:49:17.032Z,2.37
2019-02-04T20:51:46.681Z,3.45
2019-02-04T20:54:19.891Z,2.55
2019-02-04T20:56:48.967Z,3.25
2019-02-04T20:59:18.576Z,2.95
2019-02-04T21:01:48.336Z,2.95
2019-02-04T21:04:18.045Z,2.05
2019-02-04T21:06:56.084Z,2.52
2019-02-04T21:09:20.466Z,2.05
2019-02-04T21:11:50.353Z,2.40
2019-02-04T21:14:20.111Z,2.47
2019-02-04T21:16:52.424Z,2.65
2019-02-04T21:19:25.079Z,1.87
2019-02-04T21:21:54.708Z,2.42
2019-02-04T21:24:24.514Z,2.47
2019-02-04T21:26:55.883Z,3.83
2019-02-04T21:29:25.349Z,3.17
2019-02-04T21:31:55.171Z,3.92
2019-02-04T21:34:24.889Z,3.40
2019-02-04T21:36:55.351Z,3.50
2019-02-04T21:39:24.765Z,3.47
2019-02-04T21:41:54.282Z,3.02
2019-02-04T21:44:24.144Z,3.85
2019-02-04T21:46:53.908Z,4.12
2019-02-04T21:49:23.315Z,4.12
2019-02-04T21:51:52.769Z,4.15
2019-02-04T21:54:22.211Z,3.98
2019-02-04T21:56:51.628Z,4.28
2019-02-04T21:59:21.145Z,3.40
2019-02-04T22:01:50.820Z,3.08
2019-02-04T22:04:19.986Z,3.27
2019-02-04T22:06:49.420Z,3.10
2019-02-04T22:09:20.875Z,3.17
2019-02-04T22:11:50.089Z,3.77
2019-02-04T22:14:19.371Z,2.25
2019-02-04T22:16:49.082Z,3.40
2019-02-04T22:19:19.217Z,3.10
2019-02-04T22:21:49.863Z,3.33
2019-02-04T22:24:19.033Z,3.20
2019-02-04T22:26:48.024Z,4.33
2019-02-04T22:29:18.762Z,4.20
2019-02-04T22:31:47.857Z,4.22
2019-02-04T22:34:17.365Z,3.60
2019-02-04T22:36:46.576Z,4.87
2019-02-04T22:39:15.867Z,4.78
2019-02-04T22:41:45.073Z,4.62
2019-02-04T22:44:14.262Z,3.25
2019-02-04T22:46:43.465Z,2.90
2019-02-04T22:49:12.668Z,4.10
2019-02-04T22:51:41.989Z,3.02
2019-02-04T22:54:11.686Z,4.12
2019-02-04T22:56:40.768Z,4.20
2019-02-04T22:59:10.173Z,4.22
2019-02-04T23:01:42.137Z,5.15
2019-02-04T23:04:11.233Z,4.33
2019-02-04T23:06:40.423Z,3.87
2019-02-04T23:09:10.040Z,4.70
2019-02-04T23:11:39.039Z,3.98
2019-02-04T23:14:08.746Z,4.58
2019-02-04T23:16:37.944Z,5.35
2019-02-04T23:19:07.494Z,3.90
2019-02-04T23:21:36.842Z,4.78
2019-02-04T23:24:06.588Z,5.10
2019-02-04T23:26:35.474Z,4.25
2019-02-04T23:29:05.271Z,4.08
2019-02-04T23:31:34.571Z,4.22
2019-02-04T23:34:03.771Z,4.12
2019-02-04T23:36:33.175Z,3.83
2019-02-04T23:39:02.105Z,3.15
2019-02-04T23:41:31.368Z,3.55
2019-02-04T23:44:01.421Z,4.10
2019-02-04T23:46:30.683Z,3.75
2019-02-04T23:49:00.101Z,2.55
2019-02-04T23:51:29.290Z,4.72
2019-02-04T23:53:58.305Z,4.58
2019-02-04T23:56:28.814Z,4.58
2019-02-04T23:58:58.015Z,4.58
